createdAt,value
2017-11-08T00:02:02.136Z,39.70
2017-11-08T00:04:29.596Z,39.92
2017-11-08T00:06:57.043Z,42.35
2017-11-08T00:09:24.502Z,46.00
2017-11-08T00:11:51.950Z,42.38
2017-11-08T00:14:20.157Z,42.08
2017-11-08T00:16:47.619Z,40.97
2017-11-08T00:19:15.072Z,40.12
2017-11-08T00:21:45.066Z,41.15
2017-11-08T00:24:12.529Z,44.42
2017-11-08T00:26:39.973Z,42.13
2017-11-08T00:29:08.177Z,43.65
2017-11-08T00:31:35.637Z,48.38
2017-11-08T00:34:03.090Z,43.97
2017-11-08T00:36:30.566Z,39.10
2017-11-08T00:38:58.012Z,45.67
2017-11-08T00:41:25.465Z,44.17
2017-11-08T00:43:52.919Z,47.08
2017-11-08T00:46:20.370Z,54.42
2017-11-08T00:48:47.813Z,54.10
2017-11-08T00:51:16.046Z,55.35
2017-11-08T00:53:43.498Z,52.42
2017-11-08T00:56:10.952Z,58.53
2017-11-08T00:58:38.397Z,56.75
2017-11-08T01:01:05.859Z,67.60
2017-11-08T01:03:33.314Z,70.05
2017-11-08T01:06:00.781Z,66.60
2017-11-08T01:08:28.235Z,79.55
2017-11-08T01:10:55.685Z,93.00
2017-11-08T01:13:23.142Z,79.20
2017-11-08T01:15:50.602Z,85.05
2017-11-08T01:18:18.056Z,88.32
2017-11-08T01:20:45.511Z,87.28
2017-11-08T01:23:12.976Z,98.62
2017-11-08T01:25:40.432Z,101.35
2017-11-08T01:28:07.879Z,84.75
2017-11-08T01:30:35.363Z,112.05
2017-11-08T01:33:02.807Z,115.93
2017-11-08T01:35:30.263Z,93.20
2017-11-08T01:37:57.730Z,77.95
2017-11-08T01:40:25.181Z,78.05
2017-11-08T01:42:52.632Z,77.18
2017-11-08T01:45:20.081Z,64.93
2017-11-08T01:47:47.548Z,60.88
2017-11-08T01:50:15.002Z,62.95
2017-11-08T01:52:42.469Z,49.95
2017-11-08T01:55:09.927Z,40.47
2017-11-08T01:57:37.402Z,42.97
2017-11-08T02:00:04.852Z,43.92
2017-11-08T02:02:38.738Z,34.33
2017-11-08T02:05:06.190Z,34.35
2017-11-08T02:07:33.639Z,30.27
2017-11-08T02:10:01.865Z,32.38
2017-11-08T02:12:29.309Z,29.80
2017-11-08T02:14:56.772Z,30.65
2017-11-08T02:17:24.217Z,32.92
2017-11-08T02:19:51.678Z,31.05
2017-11-08T02:22:19.133Z,32.10
2017-11-08T02:24:46.608Z,30.65
2017-11-08T02:27:14.079Z,28.38
2017-11-08T02:29:41.529Z,27.52
2017-11-08T02:32:08.993Z,30.12
2017-11-08T02:34:36.498Z,27.35
2017-11-08T02:37:04.717Z,27.35
2017-11-08T02:39:32.159Z,27.13
2017-11-08T02:41:59.613Z,25.58
2017-11-08T02:44:27.063Z,28.25
2017-11-08T02:46:58.296Z,28.58
2017-11-08T02:49:26.509Z,27.23
2017-11-08T02:51:53.977Z,26.25
2017-11-08T02:54:23.331Z,23.98
2017-11-08T02:56:51.553Z,24.70
2017-11-08T02:59:19.008Z,27.37
2017-11-08T03:01:46.450Z,25.67
2017-11-08T03:04:13.906Z,25.95
2017-11-08T03:06:41.351Z,22.55
2017-11-08T03:09:08.795Z,26.00
2017-11-08T03:11:37.014Z,27.35
2017-11-08T03:14:04.470Z,28.40
2017-11-08T03:16:31.914Z,26.08
2017-11-08T03:18:59.434Z,26.00
2017-11-08T03:21:27.655Z,25.58
2017-11-08T03:23:55.099Z,24.92
2017-11-08T03:26:22.557Z,26.52
2017-11-08T03:28:50.004Z,25.85
2017-11-08T03:31:17.465Z,23.92
2017-11-08T03:33:44.902Z,25.40
2017-11-08T03:36:13.166Z,25.48
2017-11-08T03:38:40.614Z,22.70
2017-11-08T03:41:08.113Z,21.30
2017-11-08T03:43:35.589Z,23.62
2017-11-08T03:46:03.046Z,22.60
2017-11-08T03:48:30.498Z,24.30
2017-11-08T03:50:57.945Z,22.58
2017-11-08T03:53:25.407Z,23.45
2017-11-08T03:55:52.873Z,21.45
2017-11-08T03:58:20.319Z,22.85
2017-11-08T04:00:47.767Z,21.50
2017-11-08T04:03:16.010Z,20.05
2017-11-08T04:05:43.455Z,21.40
2017-11-08T04:08:10.902Z,25.98
2017-11-08T04:10:38.362Z,25.77
2017-11-08T04:13:05.819Z,25.08
2017-11-08T04:15:33.282Z,22.85
2017-11-08T04:18:00.735Z,31.37
2017-11-08T04:20:28.196Z,27.92
2017-11-08T04:22:55.638Z,33.55
2017-11-08T04:25:23.096Z,29.27
2017-11-08T04:27:50.547Z,29.50
2017-11-08T04:30:18.047Z,25.62
2017-11-08T04:32:45.505Z,27.60
2017-11-08T04:35:12.954Z,31.40
2017-11-08T04:37:40.417Z,26.45
2017-11-08T04:40:07.862Z,36.25
2017-11-08T04:42:35.330Z,28.65
2017-11-08T04:45:02.779Z,32.65
2017-11-08T04:47:30.239Z,32.58
2017-11-08T04:49:57.713Z,33.53
2017-11-08T04:52:25.179Z,30.35
2017-11-08T04:54:52.627Z,32.67
2017-11-08T04:57:20.127Z,35.85
2017-11-08T04:59:48.346Z,33.70
2017-11-08T05:02:15.814Z,36.33
2017-11-08T05:04:43.266Z,31.65
2017-11-08T05:07:10.722Z,38.13
2017-11-08T05:09:38.184Z,27.58
2017-11-08T05:12:05.633Z,39.30
2017-11-08T05:14:33.097Z,31.30
2017-11-08T05:17:00.543Z,31.20
2017-11-08T05:19:27.994Z,37.60
2017-11-08T05:21:55.443Z,44.80
2017-11-08T05:24:22.914Z,47.50
2017-11-08T05:26:50.371Z,40.25
2017-11-08T05:29:17.824Z,41.92
2017-11-08T05:31:45.302Z,44.30
2017-11-08T05:34:12.754Z,47.62
2017-11-08T05:36:40.202Z,46.53
2017-11-08T05:39:07.650Z,60.38
2017-11-08T05:41:35.144Z,45.72
2017-11-08T05:44:02.705Z,60.20
2017-11-08T05:46:30.163Z,68.45
2017-11-08T05:48:57.605Z,52.55
2017-11-08T05:51:25.106Z,64.53
2017-11-08T05:53:53.331Z,60.42
2017-11-08T05:56:20.781Z,57.67
2017-11-08T05:58:48.278Z,53.00
2017-11-08T06:01:15.731Z,58.83
2017-11-08T06:03:43.186Z,51.90
2017-11-08T06:06:10.633Z,43.80
2017-11-08T06:08:38.091Z,42.90
2017-11-08T06:11:05.530Z,54.72
2017-11-08T06:13:33.009Z,44.53
2017-11-08T06:16:00.479Z,42.72
2017-11-08T06:18:27.986Z,38.17
2017-11-08T06:20:55.437Z,37.40
2017-11-08T06:23:23.655Z,36.42
2017-11-08T06:25:51.114Z,34.10
2017-11-08T06:28:18.562Z,35.92
2017-11-08T06:30:46.044Z,36.85
2017-11-08T06:33:13.500Z,35.85
2017-11-08T06:35:40.950Z,40.17
2017-11-08T06:38:08.406Z,35.08
2017-11-08T06:40:35.865Z,32.42
2017-11-08T06:43:03.317Z,38.47
2017-11-08T06:45:30.766Z,38.28
2017-11-08T06:47:58.221Z,31.48
2017-11-08T06:50:25.671Z,31.42
2017-11-08T06:52:53.126Z,27.77
2017-11-08T06:55:20.582Z,26.60
2017-11-08T06:57:48.026Z,31.08
2017-11-08T07:00:16.246Z,26.02
2017-11-08T07:02:43.687Z,24.37
2017-11-08T07:05:11.153Z,30.67
2017-11-08T07:07:38.601Z,28.10
2017-11-08T07:10:06.062Z,25.55
2017-11-08T07:12:33.504Z,25.85
2017-11-08T07:15:00.964Z,28.33
2017-11-08T07:17:31.210Z,33.72
2017-11-08T07:19:58.658Z,23.62
2017-11-08T07:22:26.117Z,23.30
2017-11-08T07:24:53.577Z,22.13
2017-11-08T07:27:21.060Z,23.25
2017-11-08T07:29:48.518Z,28.25
2017-11-08T07:32:15.984Z,25.00
2017-11-08T07:34:43.443Z,24.55
2017-11-08T07:37:10.882Z,27.92
2017-11-08T07:39:38.336Z,25.85
2017-11-08T07:42:05.794Z,29.87
2017-11-08T07:44:33.243Z,22.50
2017-11-08T07:47:00.700Z,24.48
2017-11-08T07:49:28.148Z,27.25
2017-11-08T07:51:56.379Z,22.65
2017-11-08T07:54:24.610Z,21.30
2017-11-08T07:56:55.851Z,20.45
2017-11-08T07:59:26.090Z,21.20
2017-11-08T08:01:53.559Z,17.60
2017-11-08T08:04:21.037Z,16.80
2017-11-08T08:06:48.506Z,19.27
2017-11-08T08:09:15.953Z,15.85
2017-11-08T08:11:46.211Z,18.40
2017-11-08T08:14:14.434Z,16.08
2017-11-08T08:16:41.876Z,15.27
2017-11-08T08:19:09.331Z,14.65
2017-11-08T08:21:36.785Z,13.50
2017-11-08T08:24:04.241Z,10.10
2017-11-08T08:26:31.695Z,10.35
2017-11-08T08:29:01.681Z,10.10
2017-11-08T08:31:29.891Z,10.05
2017-11-08T08:33:57.361Z,11.50
2017-11-08T08:36:24.815Z,7.95
2017-11-08T08:38:52.265Z,8.13
2017-11-08T08:41:19.714Z,8.52
2017-11-08T08:43:47.152Z,9.10
2017-11-08T08:46:15.363Z,9.95
2017-11-08T08:48:42.806Z,8.55
2017-11-08T08:51:10.277Z,8.55
2017-11-08T08:53:37.726Z,8.18
2017-11-08T08:56:05.176Z,7.30
2017-11-08T08:58:32.625Z,10.18
2017-11-08T09:01:00.067Z,8.18
2017-11-08T09:03:28.306Z,7.18
2017-11-08T09:05:55.743Z,7.68
2017-11-08T09:08:23.235Z,6.75
2017-11-08T09:10:50.675Z,8.23
2017-11-08T09:13:18.112Z,6.70
2017-11-08T09:15:45.574Z,6.25
2017-11-08T09:18:13.021Z,10.98
2017-11-08T09:20:40.469Z,6.30
2017-11-08T09:23:07.906Z,6.75
2017-11-08T09:25:36.139Z,7.30
2017-11-08T09:28:03.593Z,6.35
2017-11-08T09:30:31.037Z,9.27
2017-11-08T09:32:58.494Z,6.50
2017-11-08T09:35:25.933Z,7.22
2017-11-08T09:37:59.085Z,8.07
2017-11-08T09:40:26.537Z,7.55
2017-11-08T09:42:54.001Z,7.20
2017-11-08T09:45:21.442Z,6.32
2017-11-08T09:47:48.885Z,5.65
2017-11-08T09:50:16.330Z,8.68
2017-11-08T09:52:43.772Z,6.50
2017-11-08T09:55:11.225Z,6.80
2017-11-08T09:57:38.713Z,9.10
2017-11-08T10:00:06.170Z,7.50
2017-11-08T10:02:34.377Z,8.98
2017-11-08T10:05:01.849Z,7.55
2017-11-08T10:07:29.304Z,7.43
2017-11-08T10:09:56.789Z,8.70
2017-11-08T10:12:24.193Z,9.05
2017-11-08T10:14:51.633Z,7.47
2017-11-08T10:17:19.084Z,6.60
2017-11-08T10:19:46.531Z,6.10
2017-11-08T10:22:13.978Z,6.55
2017-11-08T10:24:43.084Z,7.12
2017-11-08T10:27:10.533Z,9.65
2017-11-08T10:29:37.989Z,8.85
2017-11-08T10:32:06.193Z,7.62
2017-11-08T10:34:33.645Z,6.30
2017-11-08T10:37:01.092Z,6.32
2017-11-08T10:39:28.550Z,5.20
2017-11-08T10:41:56.017Z,5.90
2017-11-08T10:44:23.421Z,6.20
2017-11-08T10:46:51.640Z,7.10
2017-11-08T10:49:20.863Z,7.28
2017-11-08T10:51:48.323Z,7.55
2017-11-08T10:54:15.768Z,6.18
2017-11-08T10:56:43.236Z,6.60
2017-11-08T10:59:16.362Z,7.47
2017-11-08T11:01:44.602Z,15.60
2017-11-08T11:04:12.043Z,7.53
2017-11-08T11:06:39.485Z,6.00
2017-11-08T11:09:06.947Z,7.50
2017-11-08T11:11:34.395Z,5.93
2017-11-08T11:14:07.511Z,5.03
2017-11-08T11:16:34.957Z,6.28
2017-11-08T11:19:02.507Z,5.90
2017-11-08T11:21:29.943Z,7.90
2017-11-08T11:23:58.296Z,7.25
2017-11-08T11:26:33.180Z,10.60
2017-11-08T11:29:00.633Z,10.52
2017-11-08T11:31:28.088Z,8.98
2017-11-08T11:33:55.532Z,6.03
2017-11-08T11:36:23.011Z,6.85
2017-11-08T11:38:50.490Z,7.18
2017-11-08T11:41:24.379Z,7.70
2017-11-08T11:43:51.821Z,6.70
2017-11-08T11:46:19.347Z,7.40
2017-11-08T11:48:54.496Z,8.80
2017-11-08T11:51:25.726Z,7.47
2017-11-08T11:53:53.176Z,8.40
2017-11-08T11:56:20.724Z,7.97
2017-11-08T11:58:48.179Z,11.95
2017-11-08T12:01:15.766Z,6.57
2017-11-08T12:03:43.267Z,8.00
2017-11-08T12:06:11.532Z,8.60
2017-11-08T12:08:39.743Z,8.40
2017-11-08T12:11:07.204Z,6.18
2017-11-08T12:13:34.666Z,8.55
2017-11-08T12:16:02.120Z,8.77
2017-11-08T12:18:29.661Z,13.35
2017-11-08T12:20:57.112Z,8.75
2017-11-08T12:23:25.315Z,11.35
2017-11-08T12:25:52.766Z,8.25
2017-11-08T12:28:20.256Z,7.90
2017-11-08T12:30:47.671Z,7.75
2017-11-08T12:33:15.146Z,10.98
2017-11-08T12:35:49.431Z,7.75
2017-11-08T12:38:17.640Z,8.55
2017-11-08T12:40:45.096Z,8.60
2017-11-08T12:43:13.462Z,8.10
2017-11-08T12:45:40.951Z,8.38
2017-11-08T12:48:08.391Z,8.60
2017-11-08T12:50:35.831Z,8.75
2017-11-08T12:53:03.279Z,9.27
2017-11-08T12:55:31.494Z,9.38
2017-11-08T12:57:58.963Z,9.57
2017-11-08T13:00:26.406Z,10.25
2017-11-08T13:02:53.853Z,8.60
2017-11-08T13:08:16.964Z,17.65
2017-11-08T13:10:50.038Z,10.48
2017-11-08T13:13:17.525Z,10.90
2017-11-08T13:15:44.980Z,9.75
2017-11-08T13:18:12.449Z,11.38
2017-11-08T13:20:39.904Z,9.57
2017-11-08T13:23:07.360Z,9.40
2017-11-08T13:25:34.828Z,14.50
2017-11-08T13:28:05.138Z,9.48
2017-11-08T13:30:32.629Z,9.38
2017-11-08T13:33:00.861Z,9.45
2017-11-08T13:35:28.324Z,9.68
2017-11-08T13:37:55.789Z,9.43
2017-11-08T13:40:23.240Z,8.70
2017-11-08T13:42:50.716Z,9.35
2017-11-08T13:45:22.160Z,12.35
2017-11-08T13:47:49.648Z,11.32
2017-11-08T13:50:17.876Z,10.45
2017-11-08T13:52:45.332Z,9.63
2017-11-08T13:55:12.797Z,13.05
2017-11-08T13:57:40.261Z,11.45
2017-11-08T14:00:07.724Z,11.50
2017-11-08T14:02:35.195Z,10.27
2017-11-08T14:05:02.657Z,14.40
2017-11-08T14:07:30.140Z,10.70
2017-11-08T14:09:58.396Z,11.75
2017-11-08T14:12:25.849Z,15.80
2017-11-08T14:14:53.320Z,12.40
2017-11-08T14:17:20.784Z,10.50
2017-11-08T14:19:49.029Z,12.30
2017-11-08T14:22:16.493Z,11.73
2017-11-08T14:24:43.948Z,16.98
2017-11-08T14:27:11.417Z,12.95
2017-11-08T14:29:41.945Z,10.40
2017-11-08T14:32:12.208Z,11.48
2017-11-08T14:34:40.436Z,11.70
2017-11-08T14:37:07.894Z,11.02
2017-11-08T14:39:35.361Z,12.85
2017-11-08T14:42:08.517Z,14.90
2017-11-08T14:44:35.989Z,13.70
2017-11-08T14:47:03.452Z,12.20
2017-11-08T14:49:30.925Z,15.25
2017-11-08T14:52:00.312Z,13.15
2017-11-08T14:54:27.777Z,13.55
2017-11-08T14:56:55.238Z,11.20
2017-11-08T14:59:22.705Z,13.57
2017-11-08T15:01:52.985Z,13.48
2017-11-08T15:04:20.449Z,12.57
2017-11-08T15:06:47.930Z,14.05
2017-11-08T15:09:16.340Z,12.90
2017-11-08T15:11:44.578Z,11.82
2017-11-08T15:17:09.962Z,13.60
2017-11-08T15:19:43.836Z,14.02
2017-11-08T15:22:11.297Z,13.25
2017-11-08T15:24:38.796Z,15.15
2017-11-08T15:27:06.268Z,11.95
2017-11-08T15:29:36.233Z,12.35
2017-11-08T15:32:03.719Z,16.10
2017-11-08T15:34:33.888Z,12.80
2017-11-08T15:37:01.349Z,12.23
2017-11-08T15:39:28.812Z,12.90
2017-11-08T15:41:56.280Z,13.00
2017-11-08T15:44:23.750Z,12.00
2017-11-08T15:46:55.013Z,15.27
2017-11-08T15:49:23.276Z,13.02
2017-11-08T15:51:50.750Z,15.77
2017-11-08T15:54:18.984Z,11.60
2017-11-08T15:56:46.472Z,14.80
2017-11-08T15:59:14.713Z,12.85
2017-11-08T16:01:42.212Z,12.65
2017-11-08T16:04:11.401Z,12.43
2017-11-08T16:06:39.651Z,15.20
2017-11-08T16:09:09.976Z,15.20
2017-11-08T16:11:37.449Z,12.55
2017-11-08T16:14:04.922Z,28.73
2017-11-08T16:16:33.162Z,16.23
2017-11-08T16:19:02.425Z,16.02
2017-11-08T16:21:30.665Z,17.70
2017-11-08T16:23:59.640Z,19.33
2017-11-08T16:26:27.113Z,13.05
2017-11-08T16:28:55.356Z,16.70
2017-11-08T16:31:22.836Z,13.70
2017-11-08T16:33:50.316Z,20.10
2017-11-08T16:36:18.548Z,12.63
2017-11-08T16:38:46.009Z,21.87
2017-11-08T16:41:13.470Z,13.35
2017-11-08T16:43:40.933Z,13.18
2017-11-08T16:46:08.454Z,13.95
2017-11-08T16:48:36.831Z,13.38
2017-11-08T16:51:04.300Z,16.60
2017-11-08T16:53:31.760Z,14.52
2017-11-08T16:55:59.253Z,18.77
2017-11-08T16:58:26.710Z,16.98
2017-11-08T17:00:54.181Z,12.02
2017-11-08T17:03:21.640Z,14.07
2017-11-08T17:05:49.117Z,14.18
2017-11-08T17:08:17.421Z,15.48
2017-11-08T17:10:44.894Z,12.95
2017-11-08T17:13:12.370Z,12.35
2017-11-08T17:15:39.843Z,14.95
2017-11-08T17:18:07.339Z,17.02
2017-11-08T17:20:34.820Z,15.75
2017-11-08T17:23:02.285Z,13.93
2017-11-08T17:25:29.748Z,14.10
2017-11-08T17:27:57.217Z,17.25
2017-11-08T17:30:24.689Z,17.40
2017-11-08T17:32:52.156Z,13.27
2017-11-08T17:35:20.405Z,16.48
2017-11-08T17:37:47.874Z,16.75
2017-11-08T17:40:16.111Z,17.40
2017-11-08T17:42:43.574Z,16.62
2017-11-08T17:45:11.048Z,13.65
2017-11-08T17:47:38.623Z,14.07
2017-11-08T17:50:06.094Z,16.20
2017-11-08T17:52:33.561Z,18.30
2017-11-08T17:55:01.809Z,14.70
2017-11-08T17:57:29.270Z,13.65
2017-11-08T17:59:56.897Z,14.70
2017-11-08T18:02:24.361Z,14.75
2017-11-08T18:04:51.834Z,14.00
2017-11-08T18:07:19.297Z,14.32
2017-11-08T18:09:46.793Z,16.60
2017-11-08T18:12:14.582Z,14.23
2017-11-08T18:14:42.049Z,15.63
2017-11-08T18:17:10.355Z,22.87
2017-11-08T18:19:37.838Z,15.32
2017-11-08T18:22:06.081Z,15.68
2017-11-08T18:24:33.790Z,15.18
2017-11-08T18:27:02.025Z,14.10
2017-11-08T18:29:29.512Z,16.67
2017-11-08T18:31:57.773Z,14.77
2017-11-08T18:34:25.228Z,18.23
2017-11-08T18:36:52.701Z,14.40
2017-11-08T18:39:20.929Z,17.27
2017-11-08T18:41:48.405Z,16.20
2017-11-08T18:44:15.865Z,17.37
2017-11-08T18:46:43.333Z,18.90
2017-11-08T18:49:10.796Z,17.98
2017-11-08T18:51:38.264Z,14.50
2017-11-08T18:54:06.496Z,16.40
2017-11-08T18:56:33.965Z,18.25
2017-11-08T18:59:01.424Z,17.80
2017-11-08T19:01:28.898Z,15.82
2017-11-08T19:03:56.361Z,17.70
2017-11-08T19:06:24.261Z,16.58
2017-11-08T19:08:51.741Z,17.33
2017-11-08T19:11:19.238Z,17.27
2017-11-08T19:13:46.704Z,21.12
2017-11-08T19:16:14.159Z,16.98
2017-11-08T19:18:41.644Z,17.65
2017-11-08T19:21:09.873Z,16.30
2017-11-08T19:23:37.404Z,17.37
2017-11-08T19:26:04.877Z,21.83
2017-11-08T19:28:32.361Z,19.90
2017-11-08T19:30:59.816Z,18.52
2017-11-08T19:33:27.285Z,20.80
2017-11-08T19:35:54.749Z,17.55
2017-11-08T19:38:23.045Z,18.62
2017-11-08T19:40:50.571Z,17.70
2017-11-08T19:43:18.050Z,16.08
2017-11-08T19:45:46.276Z,17.52
2017-11-08T19:48:13.757Z,20.67
2017-11-08T19:50:41.998Z,19.87
2017-11-08T19:53:09.464Z,19.75
2017-11-08T19:55:36.920Z,20.80
2017-11-08T19:58:04.406Z,15.80
2017-11-08T20:00:31.872Z,17.60
2017-11-08T20:02:59.332Z,18.70
2017-11-08T20:05:26.802Z,19.58
2017-11-08T20:07:55.033Z,20.90
2017-11-08T20:10:22.516Z,19.55
2017-11-08T20:12:49.976Z,20.37
2017-11-08T20:15:17.583Z,20.95
2017-11-08T20:17:45.042Z,18.35
2017-11-08T20:20:12.512Z,19.02
2017-11-08T20:22:39.982Z,18.58
2017-11-08T20:25:07.681Z,17.15
2017-11-08T20:27:35.917Z,18.75
2017-11-08T20:30:03.397Z,17.48
2017-11-08T20:32:30.872Z,18.10
2017-11-08T20:34:59.102Z,15.98
2017-11-08T20:37:26.609Z,23.00
2017-11-08T20:39:54.113Z,21.90
2017-11-08T20:42:21.580Z,19.75
2017-11-08T20:44:49.064Z,20.95
2017-11-08T20:47:16.580Z,21.02
2017-11-08T20:49:44.046Z,17.70
2017-11-08T20:52:11.519Z,18.37
2017-11-08T20:54:38.984Z,20.73
2017-11-08T20:57:06.466Z,20.58
2017-11-08T20:59:33.925Z,21.45
2017-11-08T21:02:02.181Z,19.35
2017-11-08T21:04:29.655Z,22.13
2017-11-08T21:06:57.117Z,19.45
2017-11-08T21:09:25.345Z,18.92
2017-11-08T21:11:52.820Z,27.30
2017-11-08T21:14:20.285Z,22.25
2017-11-08T21:16:47.752Z,22.30
2017-11-08T21:19:15.238Z,18.90
2017-11-08T21:21:43.468Z,19.37
2017-11-08T21:24:10.936Z,21.20
2017-11-08T21:26:38.398Z,17.83
2017-11-08T21:29:05.879Z,21.95
2017-11-08T21:31:34.139Z,20.65
2017-11-08T21:34:01.609Z,21.42
2017-11-08T21:36:29.836Z,21.20
2017-11-08T21:38:57.336Z,21.45
2017-11-08T21:41:25.565Z,21.48
2017-11-08T21:43:53.032Z,21.02
2017-11-08T21:46:20.508Z,22.52
2017-11-08T21:48:47.985Z,21.33
2017-11-08T21:51:16.214Z,25.02
2017-11-08T21:53:43.722Z,22.00
2017-11-08T21:56:11.962Z,18.23
2017-11-08T21:58:39.436Z,21.85
2017-11-08T22:01:06.917Z,20.17
2017-11-08T22:03:35.157Z,21.40
2017-11-08T22:06:02.637Z,23.10
2017-11-08T22:08:30.096Z,21.50
2017-11-08T22:10:58.332Z,23.12
2017-11-08T22:13:25.800Z,22.75
2017-11-08T22:15:53.268Z,22.90
2017-11-08T22:18:20.773Z,22.02
2017-11-08T22:20:48.263Z,21.10
2017-11-08T22:23:15.726Z,22.20
2017-11-08T22:25:43.182Z,22.60
2017-11-08T22:28:10.653Z,19.65
2017-11-08T22:30:38.125Z,26.58
2017-11-08T22:33:05.589Z,22.65
2017-11-08T22:35:33.845Z,22.37
2017-11-08T22:38:01.319Z,20.62
2017-11-08T22:40:28.776Z,22.25
2017-11-08T22:42:56.231Z,22.05
2017-11-08T22:45:23.704Z,23.73
2017-11-08T22:47:51.936Z,24.00
2017-11-08T22:50:19.409Z,23.20
2017-11-08T22:52:46.877Z,22.60
2017-11-08T22:55:14.344Z,23.25
2017-11-08T22:57:41.805Z,23.02
2017-11-08T23:00:10.117Z,22.25
2017-11-08T23:02:37.597Z,24.80
2017-11-08T23:05:05.058Z,23.77
2017-11-08T23:07:32.530Z,24.45
2017-11-08T23:09:59.991Z,26.67
2017-11-08T23:12:27.469Z,27.40
2017-11-08T23:14:55.710Z,28.95
2017-11-08T23:17:23.185Z,27.45
2017-11-08T23:19:50.668Z,26.33
2017-11-08T23:22:18.901Z,27.67
2017-11-08T23:24:46.386Z,25.65
2017-11-08T23:27:13.845Z,26.10
2017-11-08T23:29:42.090Z,29.85
2017-11-08T23:32:09.545Z,30.42
2017-11-08T23:34:37.032Z,27.33
2017-11-08T23:37:04.492Z,27.33
2017-11-08T23:39:32.742Z,28.02
2017-11-08T23:42:00.200Z,45.35
2017-11-08T23:44:27.664Z,31.00
2017-11-08T23:46:55.132Z,29.15
2017-11-08T23:49:22.584Z,27.73
2017-11-08T23:51:50.057Z,28.58
2017-11-08T23:54:18.322Z,28.83
2017-11-08T23:56:45.793Z,29.98
2017-11-08T23:59:19.618Z,33.10
